Time;durP1;ratioP1;P1;durP2;ratioP2;P2;SDS_P1;SDS_P2;PMS_P1;PMS_P2;Temp;Humidity;BMP_temperature;BMP_pressure;BME280_temperature;BME280_humidity;BME280_pressure;Samples;Min_cycle;Max_cycle;Signal;HPM_P1;HPM_P2
2023/08/19 00:00:46;;;;;;;13.07;7.83;;;21.50;99.90;;;;;;5041747;28;20298;-79
2023/08/19 00:03:12;;;;;;;11.23;7.33;;;21.50;99.90;;;;;;5040984;28;20172;-79
2023/08/19 00:05:37;;;;;;;11.23;7.47;;;21.50;99.90;;;;;;5038662;28;20176;-79
2023/08/19 00:08:03;;;;;;;15.57;7.80;;;21.60;99.90;;;;;;5041603;28;20204;-79
2023/08/19 00:10:29;;;;;;;13.73;8.10;;;21.50;99.90;;;;;;5040948;28;20651;-79
2023/08/19 00:12:54;;;;;;;9.63;8.07;;;21.50;99.90;;;;;;5041463;28;20266;-79
2023/08/19 00:15:20;;;;;;;10.80;7.30;;;21.50;99.90;;;;;;5040896;28;20198;-79
2023/08/19 00:17:45;;;;;;;10.77;6.93;;;21.50;99.90;;;;;;5040177;28;20301;-79
2023/08/19 00:20:11;;;;;;;9.17;6.97;;;21.50;99.90;;;;;;5041190;28;20175;-79
2023/08/19 00:22:37;;;;;;;9.70;7.63;;;21.50;99.90;;;;;;5038821;28;20200;-79
2023/08/19 00:25:04;;;;;;;13.50;7.20;;;21.50;99.90;;;;;;5039553;28;20176;-79
2023/08/19 00:27:29;;;;;;;8.33;7.37;;;21.50;99.90;;;;;;5039877;28;20180;-79
2023/08/19 00:29:55;;;;;;;11.87;7.20;;;21.50;99.90;;;;;;5039955;28;20177;-79
2023/08/19 00:32:21;;;;;;;14.13;6.90;;;21.40;99.90;;;;;;5039806;28;20200;-79
2023/08/19 00:34:47;;;;;;;14.13;7.07;;;21.50;99.90;;;;;;5039662;28;20177;-79
2023/08/19 00:37:13;;;;;;;10.43;6.83;;;21.30;99.90;;;;;;5038954;28;20183;-79
2023/08/19 00:39:38;;;;;;;12.40;7.37;;;21.30;99.90;;;;;;5039937;28;20172;-79
2023/08/19 00:42:06;;;;;;;10.60;6.70;;;21.40;99.90;;;;;;5047225;28;20197;-79
2023/08/19 00:44:34;;;;;;;9.40;6.50;;;21.40;99.90;;;;;;5049337;28;20306;-79
2023/08/19 00:47:03;;;;;;;13.53;7.10;;;21.30;99.90;;;;;;5040425;28;20222;-79
2023/08/19 00:49:32;;;;;;;11.23;6.40;;;21.40;99.90;;;;;;5038953;28;20188;-79
2023/08/19 00:52:00;;;;;;;14.30;7.20;;;21.20;99.90;;;;;;5039317;28;20577;-79
2023/08/19 00:54:26;;;;;;;15.23;7.50;;;21.30;99.90;;;;;;5041115;28;20222;-79
2023/08/19 00:56:52;;;;;;;16.10;7.20;;;21.50;99.90;;;;;;5048748;28;20183;-79
2023/08/19 00:59:18;;;;;;;13.87;7.13;;;21.50;99.90;;;;;;5060328;28;20214;-79
2023/08/19 01:01:44;;;;;;;11.03;7.27;;;21.50;99.90;;;;;;5059696;28;20203;-79
2023/08/19 01:04:09;;;;;;;15.57;6.73;;;21.30;99.90;;;;;;5060400;28;20523;-79
2023/08/19 01:06:55;;;;;;;12.10;6.87;;;21.40;99.90;;;;;;5058380;28;20175;-79
2023/08/19 01:09:32;;;;;;;13.10;7.17;;;21.30;99.90;;;;;;5059990;28;20167;-79
2023/08/19 01:12:35;;;;;;;12.43;6.10;;;21.20;99.90;;;;;;5056001;28;20206;-79
2023/08/19 01:15:16;;;;;;;13.70;6.37;;;21.30;99.90;;;;;;5050112;28;20286;-78
2023/08/19 01:17:42;;;;;;;16.70;6.33;;;21.20;99.90;;;;;;5052660;28;20275;-78
2023/08/19 01:20:10;;;;;;;14.70;7.07;;;21.10;99.90;;;;;;5052941;28;20207;-79
2023/08/19 01:22:51;;;;;;;13.97;7.20;;;21.10;99.90;;;;;;5051651;28;20223;-80
2023/08/19 01:25:18;;;;;;;13.73;6.63;;;21.10;99.90;;;;;;5053480;28;20152;-79
2023/08/19 01:27:43;;;;;;;12.20;6.73;;;21.10;99.90;;;;;;5048856;28;20279;-78
2023/08/19 01:30:09;;;;;;;11.53;6.67;;;21.10;99.90;;;;;;5053269;28;20210;-79
2023/08/19 01:32:36;;;;;;;12.23;6.77;;;21.10;99.90;;;;;;5058812;28;20191;-79
2023/08/19 01:35:02;;;;;;;12.60;6.67;;;21.10;99.90;;;;;;5046597;28;20176;-79
2023/08/19 01:38:00;;;;;;;14.17;6.37;;;21.00;99.90;;;;;;5039264;28;20180;-78
2023/08/19 01:40:26;;;;;;;10.57;6.40;;;21.00;99.90;;;;;;5028816;28;20185;-79
2023/08/19 01:42:54;;;;;;;11.87;5.97;;;20.90;99.90;;;;;;5038616;28;20172;-79
2023/08/19 01:45:20;;;;;;;10.03;6.40;;;21.00;99.90;;;;;;5049628;28;20213;-79
2023/08/19 01:47:52;;;;;;;12.53;6.87;;;20.80;99.90;;;;;;5046719;28;20234;-78
2023/08/19 01:50:18;;;;;;;9.70;6.67;;;20.80;99.90;;;;;;5040010;28;20236;-79
2023/08/19 01:52:44;;;;;;;15.80;6.20;;;20.80;99.90;;;;;;5055086;28;20200;-79
2023/08/19 01:55:09;;;;;;;10.27;6.20;;;20.80;99.90;;;;;;5054219;28;20183;-79
2023/08/19 01:57:35;;;;;;;8.87;5.90;;;20.80;99.90;;;;;;5038505;28;20222;-79
2023/08/19 02:00:00;;;;;;;15.90;5.97;;;20.90;99.90;;;;;;5051139;28;20171;-79
2023/08/19 02:02:26;;;;;;;14.47;5.43;;;20.70;99.90;;;;;;5059024;28;20265;-79
2023/08/19 02:04:51;;;;;;;14.70;6.33;;;20.70;99.90;;;;;;5059219;28;20179;-79
2023/08/19 02:07:17;;;;;;;11.10;6.17;;;20.60;99.90;;;;;;5059548;28;20168;-79
2023/08/19 02:09:44;;;;;;;14.40;6.17;;;20.50;99.90;;;;;;5056986;28;20175;-80
2023/08/19 02:12:10;;;;;;;12.87;5.77;;;20.70;99.90;;;;;;5058210;28;20203;-79
2023/08/19 02:14:36;;;;;;;16.47;5.90;;;20.50;99.90;;;;;;5051531;28;20190;-79
2023/08/19 02:17:01;;;;;;;10.83;5.57;;;20.60;99.90;;;;;;5039553;28;20175;-78
2023/08/19 02:19:27;;;;;;;13.47;6.03;;;20.70;99.90;;;;;;5039711;28;20208;-79
2023/08/19 02:21:52;;;;;;;16.33;5.60;;;20.50;99.90;;;;;;5039723;28;20188;-79
2023/08/19 02:24:18;;;;;;;14.40;5.70;;;20.50;99.90;;;;;;5037916;28;20548;-79
2023/08/19 02:26:43;;;;;;;17.60;6.53;;;20.50;99.90;;;;;;5038289;28;20168;-79
2023/08/19 02:29:09;;;;;;;17.37;6.17;;;20.50;99.90;;;;;;5039382;28;20184;-79
2023/08/19 02:31:36;;;;;;;13.33;6.03;;;20.50;99.90;;;;;;5054311;28;20226;-79
2023/08/19 02:34:02;;;;;;;12.30;5.47;;;20.50;99.90;;;;;;5059190;28;20179;-79
2023/08/19 02:36:28;;;;;;;14.97;5.60;;;20.40;99.90;;;;;;5058039;28;20521;-79
2023/08/19 02:38:53;;;;;;;17.67;6.20;;;20.60;99.90;;;;;;5056222;28;20205;-79
2023/08/19 02:41:19;;;;;;;12.17;6.47;;;20.40;99.90;;;;;;5056297;28;20187;-79
2023/08/19 02:43:45;;;;;;;17.73;5.67;;;20.40;99.90;;;;;;5057493;28;20175;-79
2023/08/19 02:46:10;;;;;;;16.90;5.97;;;20.50;99.90;;;;;;5051002;28;20200;-79
2023/08/19 02:48:36;;;;;;;9.00;5.43;;;20.30;99.90;;;;;;5057995;28;20186;-79
2023/08/19 02:51:01;;;;;;;14.33;5.70;;;20.30;99.90;;;;;;5058605;28;20294;-79
2023/08/19 02:53:28;;;;;;;15.40;5.40;;;20.30;99.90;;;;;;5046618;28;20176;-79
2023/08/19 02:55:54;;;;;;;13.80;5.80;;;20.30;99.90;;;;;;5042237;28;20172;-79
2023/08/19 02:58:20;;;;;;;16.77;5.77;;;20.40;99.90;;;;;;5042022;28;20204;-79
2023/08/19 03:00:47;;;;;;;13.77;5.70;;;20.30;99.90;;;;;;5042681;28;20195;-78
2023/08/19 03:03:12;;;;;;;14.23;5.20;;;20.20;99.90;;;;;;5054226;28;20604;-79
2023/08/19 03:05:39;;;;;;;14.93;5.90;;;20.20;99.90;;;;;;5062536;28;20258;-79
2023/08/19 03:08:07;;;;;;;10.30;6.10;;;20.30;99.90;;;;;;5061030;28;20180;-79
2023/08/19 03:10:33;;;;;;;18.43;6.13;;;20.20;99.90;;;;;;5062766;28;20206;-79
2023/08/19 03:12:59;;;;;;;13.37;5.60;;;20.10;99.90;;;;;;5063005;28;20168;-79
2023/08/19 03:15:25;;;;;;;14.77;5.73;;;20.20;99.90;;;;;;5061954;28;20553;-79
2023/08/19 03:17:50;;;;;;;15.90;6.17;;;20.20;99.90;;;;;;5057666;28;20245;-79
2023/08/19 03:20:16;;;;;;;10.10;5.23;;;20.00;99.90;;;;;;5041319;28;20172;-79
2023/08/19 03:22:42;;;;;;;11.30;5.43;;;20.10;99.90;;;;;;5040158;28;20188;-80
2023/08/19 03:25:08;;;;;;;12.87;5.97;;;20.10;99.90;;;;;;5041312;28;20173;-78
2023/08/19 03:27:34;;;;;;;11.03;5.63;;;20.20;99.90;;;;;;5042715;28;20207;-79
2023/08/19 03:30:00;;;;;;;7.87;5.37;;;20.10;99.90;;;;;;5043025;28;20625;-79
2023/08/19 03:32:25;;;;;;;7.20;5.47;;;20.20;99.90;;;;;;5040063;28;20193;-79
2023/08/19 03:34:51;;;;;;;8.73;5.60;;;20.20;99.90;;;;;;5051019;28;20681;-79
2023/08/19 03:37:16;;;;;;;7.23;4.93;;;20.00;99.90;;;;;;5060367;28;20195;-79
2023/08/19 03:39:42;;;;;;;9.17;5.10;;;20.20;99.90;;;;;;5060067;28;20547;-79
2023/08/19 03:42:07;;;;;;;18.53;5.47;;;20.20;99.90;;;;;;5062516;28;20202;-79
2023/08/19 03:44:33;;;;;;;19.60;5.13;;;20.20;99.90;;;;;;5060273;28;20243;-79
2023/08/19 03:46:59;;;;;;;12.83;5.23;;;20.10;99.90;;;;;;5057605;28;20171;-79
2023/08/19 03:49:24;;;;;;;15.87;4.77;;;20.30;99.90;;;;;;5061644;28;20171;-80
2023/08/19 03:51:50;;;;;;;11.27;4.83;;;20.10;99.90;;;;;;5059677;28;20235;-79
2023/08/19 03:54:15;;;;;;;8.00;4.80;;;20.10;99.90;;;;;;5058924;28;20172;-79
2023/08/19 03:56:41;;;;;;;11.73;5.00;;;20.10;99.90;;;;;;5061537;28;20184;-79
2023/08/19 03:59:06;;;;;;;11.67;5.20;;;20.20;99.90;;;;;;5052670;28;20212;-79
2023/08/19 04:01:32;;;;;;;7.13;5.23;;;20.20;99.90;;;;;;5041054;28;20267;-79
2023/08/19 04:03:57;;;;;;;6.93;3.87;;;20.10;99.90;;;;;;5055645;28;20194;-79
2023/08/19 04:06:23;;;;;;;8.60;4.80;;;20.20;99.90;;;;;;5039456;28;20180;-78
2023/08/19 04:08:48;;;;;;;12.13;4.87;;;20.20;99.90;;;;;;5040729;28;20640;-79
2023/08/19 04:11:14;;;;;;;10.10;5.13;;;20.10;99.90;;;;;;5056280;28;20579;-79
2023/08/19 04:13:40;;;;;;;11.87;4.50;;;20.30;99.90;;;;;;5040841;28;20548;-79
2023/08/19 04:16:07;;;;;;;9.57;4.93;;;20.20;99.90;;;;;;5042735;28;20180;-79
2023/08/19 04:18:33;;;;;;;10.63;4.60;;;20.10;99.90;;;;;;5039633;28;20211;-79
2023/08/19 04:21:06;;;;;;;10.43;3.90;;;20.20;99.90;;;;;;5040423;28;20196;-81
2023/08/19 04:23:32;;;;;;;8.97;4.47;;;20.20;99.90;;;;;;5040359;28;20177;-79
2023/08/19 04:25:58;;;;;;;6.33;4.10;;;20.30;99.90;;;;;;5039190;28;20263;-79
2023/08/19 04:28:23;;;;;;;9.07;4.93;;;20.20;99.90;;;;;;5040348;28;20227;-79
2023/08/19 04:30:49;;;;;;;11.27;4.23;;;20.30;99.90;;;;;;5038510;28;20219;-79
2023/08/19 04:33:14;;;;;;;6.10;3.77;;;20.30;99.90;;;;;;5040771;28;20662;-79
2023/08/19 04:35:40;;;;;;;10.93;4.30;;;20.40;99.90;;;;;;5038177;28;20594;-79
2023/08/19 04:38:06;;;;;;;10.00;4.70;;;20.30;99.90;;;;;;5038328;28;20206;-79
2023/08/19 04:40:31;;;;;;;8.77;4.27;;;20.40;99.90;;;;;;5060007;28;20178;-79
2023/08/19 04:42:57;;;;;;;11.67;4.77;;;20.30;99.90;;;;;;5059569;28;20176;-81
2023/08/19 04:45:23;;;;;;;10.43;4.10;;;20.40;99.90;;;;;;5057949;28;20551;-79
2023/08/19 04:47:50;;;;;;;6.80;3.47;;;20.40;99.90;;;;;;5059512;28;20176;-79
2023/08/19 04:50:16;;;;;;;10.13;3.53;;;20.40;99.90;;;;;;5058288;28;20176;-79
2023/08/19 04:52:41;;;;;;;7.13;3.87;;;20.40;99.90;;;;;;5057585;28;20206;-79
2023/08/19 04:55:08;;;;;;;9.17;3.33;;;20.40;99.90;;;;;;5046386;28;20191;-79
2023/08/19 04:57:33;;;;;;;7.80;3.60;;;20.40;99.90;;;;;;5039884;28;20192;-79
2023/08/19 04:59:59;;;;;;;9.20;3.70;;;20.40;99.90;;;;;;5038675;28;20184;-79
2023/08/19 05:02:24;;;;;;;5.03;3.77;;;20.40;99.90;;;;;;5049897;28;20188;-79
2023/08/19 05:04:50;;;;;;;9.10;3.33;;;20.50;99.90;;;;;;5052680;28;20255;-79
2023/08/19 05:07:15;;;;;;;6.10;3.37;;;20.50;99.90;;;;;;5037628;28;20521;-79
2023/08/19 05:09:41;;;;;;;4.77;2.73;;;20.50;99.90;;;;;;5038862;28;20663;-79
2023/08/19 05:12:07;;;;;;;8.70;3.50;;;20.60;99.90;;;;;;5038966;28;20294;-79
2023/08/19 05:14:33;;;;;;;7.97;3.33;;;20.60;99.90;;;;;;5038217;28;20302;-79
2023/08/19 05:16:58;;;;;;;8.43;3.30;;;20.60;99.90;;;;;;5037589;28;20199;-79
2023/08/19 05:19:24;;;;;;;8.10;2.93;;;20.70;99.90;;;;;;5038311;28;20287;-79
2023/08/19 05:21:51;;;;;;;9.23;3.07;;;20.60;99.90;;;;;;5037215;28;20227;-79
2023/08/19 05:24:16;;;;;;;7.40;3.10;;;20.70;99.90;;;;;;5036956;28;20180;-79
2023/08/19 05:26:44;;;;;;;6.30;2.80;;;20.70;99.90;;;;;;5037687;28;20315;-79
2023/08/19 05:29:10;;;;;;;11.17;3.13;;;20.80;99.90;;;;;;5038443;28;20184;-79
2023/08/19 05:31:36;;;;;;;8.57;3.20;;;21.00;99.90;;;;;;5037704;28;20731;-79
2023/08/19 05:34:01;;;;;;;6.17;2.80;;;21.10;99.90;;;;;;5036971;28;20199;-79
2023/08/19 05:36:27;;;;;;;8.07;3.10;;;21.00;99.90;;;;;;5038432;28;20505;-79
2023/08/19 05:38:53;;;;;;;7.73;2.60;;;21.00;99.90;;;;;;5038109;28;20201;-79
2023/08/19 05:41:18;;;;;;;4.57;2.50;;;21.10;99.90;;;;;;5037617;28;20274;-79
2023/08/19 05:43:44;;;;;;;4.47;2.80;;;21.00;99.90;;;;;;5037548;28;20613;-79
2023/08/19 05:46:10;;;;;;;4.00;2.60;;;21.20;99.90;;;;;;5037648;28;20196;-79
2023/08/19 05:48:35;;;;;;;7.83;2.80;;;21.20;99.90;;;;;;5037312;28;20183;-79
2023/08/19 05:51:01;;;;;;;3.50;2.63;;;21.30;99.90;;;;;;5036133;28;20203;-78
2023/08/19 05:53:27;;;;;;;9.20;2.33;;;21.30;99.90;;;;;;5038276;28;20612;-79
2023/08/19 05:55:52;;;;;;;6.17;2.70;;;21.40;99.90;;;;;;5038302;28;20186;-79
2023/08/19 05:58:18;;;;;;;3.60;2.57;;;21.40;99.90;;;;;;5036630;28;20287;-79
2023/08/19 06:00:44;;;;;;;10.87;3.03;;;21.50;99.90;;;;;;5056752;28;20204;-79
2023/08/19 06:03:09;;;;;;;6.33;2.50;;;21.60;99.90;;;;;;5056839;28;20168;-79
2023/08/19 06:05:36;;;;;;;2.40;1.97;;;21.60;99.90;;;;;;5055524;28;20551;-79
2023/08/19 06:08:03;;;;;;;6.13;2.33;;;21.70;99.90;;;;;;5056790;28;20179;-79
2023/08/19 06:10:29;;;;;;;5.83;3.00;;;21.70;99.90;;;;;;5055588;28;20592;-79
2023/08/19 06:12:54;;;;;;;5.30;2.20;;;21.70;99.90;;;;;;5056787;28;20180;-79
2023/08/19 06:15:20;;;;;;;4.27;2.07;;;21.80;99.90;;;;;;5052844;28;20172;-79
2023/08/19 06:17:45;;;;;;;5.27;3.03;;;21.80;99.90;;;;;;5057747;28;20210;-79
2023/08/19 06:20:11;;;;;;;4.17;2.40;;;21.80;99.90;;;;;;5054690;28;20180;-79
2023/08/19 06:22:37;;;;;;;4.80;2.40;;;21.90;99.90;;;;;;5055928;28;20191;-79
2023/08/19 06:25:03;;;;;;;6.70;2.37;;;21.80;99.90;;;;;;5056263;28;20701;-79
2023/08/19 06:27:29;;;;;;;3.50;2.80;;;21.90;99.90;;;;;;5056421;28;20171;-79
2023/08/19 06:29:55;;;;;;;3.20;2.47;;;21.90;99.90;;;;;;5054594;28;20190;-79
2023/08/19 06:32:20;;;;;;;7.87;2.87;;;21.90;99.90;;;;;;5036722;28;20211;-79
2023/08/19 06:34:46;;;;;;;6.80;2.50;;;22.00;99.90;;;;;;5035818;28;20168;-79
2023/08/19 06:37:18;;;;;;;3.70;2.60;;;22.00;99.90;;;;;;5036182;28;20165;-79
2023/08/19 06:39:49;;;;;;;3.33;2.40;;;22.20;99.90;;;;;;5036319;28;20192;-79
2023/08/19 06:42:16;;;;;;;10.43;3.03;;;22.00;99.90;;;;;;5036742;28;20691;-79
2023/08/19 06:44:42;;;;;;;6.93;2.50;;;22.10;99.90;;;;;;5035770;28;20210;-79
2023/08/19 06:47:09;;;;;;;5.80;2.53;;;22.10;99.90;;;;;;5040923;28;20176;-79
2023/08/19 06:49:36;;;;;;;4.47;2.63;;;22.10;99.90;;;;;;5056115;28;20168;-79
2023/08/19 06:52:01;;;;;;;4.30;2.30;;;22.20;99.90;;;;;;5055049;28;20198;-79
2023/08/19 06:54:27;;;;;;;6.23;2.80;;;22.20;99.90;;;;;;5054473;28;20651;-79
2023/08/19 06:57:15;;;;;;;9.67;2.47;;;22.20;99.90;;;;;;5054682;28;20201;-79
2023/08/19 06:59:46;;;;;;;6.87;2.53;;;22.30;99.90;;;;;;5056066;28;20214;-79
2023/08/19 07:02:15;;;;;;;4.47;2.60;;;22.40;99.90;;;;;;5053632;28;20227;-79
2023/08/19 07:04:45;;;;;;;3.13;2.37;;;22.30;99.90;;;;;;5053155;28;20179;-79
2023/08/19 07:07:12;;;;;;;4.87;2.60;;;22.40;99.90;;;;;;5056468;28;20221;-79
2023/08/19 07:09:38;;;;;;;7.97;2.43;;;22.40;99.90;;;;;;5055539;28;20179;-79
2023/08/19 07:12:04;;;;;;;4.03;2.23;;;22.50;99.90;;;;;;5057594;28;20196;-79
2023/08/19 07:14:30;;;;;;;3.47;2.27;;;22.50;99.90;;;;;;5060624;28;20168;-78
2023/08/19 07:16:59;;;;;;;4.57;2.37;;;22.50;99.90;;;;;;5056247;28;20186;-79
2023/08/19 07:19:37;;;;;;;5.47;2.80;;;22.60;99.90;;;;;;5053161;28;20192;-79
2023/08/19 07:22:03;;;;;;;15.73;2.80;;;22.70;99.90;;;;;;5056988;28;20207;-79
2023/08/19 07:24:29;;;;;;;4.77;2.70;;;22.70;99.90;;;;;;5056612;28;20168;-79
2023/08/19 07:26:56;;;;;;;6.00;2.80;;;22.80;99.90;;;;;;5056845;28;20164;-79
2023/08/19 07:29:22;;;;;;;3.53;2.30;;;23.00;99.90;;;;;;5056596;28;20202;-79
2023/08/19 07:31:48;;;;;;;5.03;2.47;;;22.90;99.90;;;;;;5056359;28;20192;-79
2023/08/19 07:34:13;;;;;;;8.50;3.07;;;22.90;99.90;;;;;;5049105;28;20230;-79
2023/08/19 07:36:39;;;;;;;5.60;2.37;;;23.10;99.90;;;;;;5045845;28;20175;-79
2023/08/19 07:39:05;;;;;;;3.80;2.50;;;23.10;99.90;;;;;;5056111;28;20203;-78
2023/08/19 07:41:30;;;;;;;5.13;2.57;;;23.10;99.90;;;;;;5059931;28;20195;-79
2023/08/19 07:43:56;;;;;;;5.50;2.33;;;23.30;99.90;;;;;;5058908;28;20612;-79
2023/08/19 07:46:22;;;;;;;6.43;2.20;;;23.20;99.90;;;;;;5053437;28;20210;-78
2023/08/19 07:48:47;;;;;;;7.77;2.80;;;23.30;99.90;;;;;;5058089;28;20187;-79
2023/08/19 07:51:13;;;;;;;4.83;2.17;;;23.40;99.90;;;;;;5049582;28;20212;-79
2023/08/19 07:53:39;;;;;;;5.23;2.40;;;23.40;99.90;;;;;;5039726;28;20199;-79
2023/08/19 07:56:06;;;;;;;7.73;2.80;;;23.50;99.90;;;;;;5039249;28;20255;-79
2023/08/19 07:58:32;;;;;;;4.17;2.50;;;23.50;99.90;;;;;;5040074;28;20204;-79
2023/08/19 08:00:58;;;;;;;3.77;2.40;;;23.60;99.90;;;;;;5058102;28;20210;-79
2023/08/19 08:03:24;;;;;;;4.07;2.57;;;23.70;99.90;;;;;;5059563;28;20250;-79
2023/08/19 08:05:49;;;;;;;6.27;2.73;;;23.70;99.90;;;;;;5059594;28;20179;-79
2023/08/19 08:08:15;;;;;;;3.37;2.47;;;23.80;99.90;;;;;;5059215;28;20179;-79
2023/08/19 08:10:41;;;;;;;8.20;2.70;;;23.90;99.90;;;;;;5058984;28;20194;-78
2023/08/19 08:13:07;;;;;;;5.77;2.60;;;24.00;99.90;;;;;;5059180;28;20271;-79
2023/08/19 08:15:32;;;;;;;6.25;2.50;;;24.10;99.90;;;;;;5047761;28;20184;-79
2023/08/19 08:17:58;;;;;;;8.90;2.93;;;24.20;99.90;;;;;;5039098;28;20239;-79
2023/08/19 08:20:23;;;;;;;3.23;2.30;;;24.20;99.90;;;;;;5038740;28;20199;-79
2023/08/19 08:22:49;;;;;;;8.47;2.40;;;24.30;99.90;;;;;;5038528;28;20180;-79
2023/08/19 08:25:14;;;;;;;4.55;2.65;;;24.40;99.90;;;;;;5038786;28;20172;-79
2023/08/19 08:27:40;;;;;;;7.05;2.70;;;24.40;99.90;;;;;;5038856;28;20172;-79
2023/08/19 08:30:07;;;;;;;6.27;2.93;;;24.40;99.90;;;;;;5038325;28;20692;-79
2023/08/19 08:32:33;;;;;;;5.45;2.70;;;24.50;99.90;;;;;;5037677;28;20232;-79
2023/08/19 08:34:59;;;;;;;9.07;2.83;;;24.40;99.90;;;;;;5038414;28;20207;-79
2023/08/19 08:37:25;;;;;;;6.57;2.40;;;24.50;99.90;;;;;;5038056;28;20168;-79
2023/08/19 08:39:50;;;;;;;7.47;2.88;;;24.50;99.90;;;;;;5037737;28;20204;-79
2023/08/19 08:42:17;;;;;;;3.73;2.30;;;24.50;99.90;;;;;;5037876;28;20279;-79
2023/08/19 08:44:46;;;;;;;8.18;2.60;;;24.60;99.90;;;;;;5037699;28;20184;-79
2023/08/19 08:47:14;;;;;;;6.05;2.75;;;24.60;99.90;;;;;;5036975;28;20176;-80
2023/08/19 08:49:40;;;;;;;9.60;3.00;;;24.70;99.90;;;;;;5038187;28;20168;-78
2023/08/19 08:52:06;;;;;;;11.20;3.03;;;24.70;99.90;;;;;;5037509;28;20192;-79
2023/08/19 08:54:33;;;;;;;6.50;2.90;;;24.80;99.90;;;;;;5037341;28;20168;-78
2023/08/19 08:57:01;;;;;;;3.15;2.63;;;24.80;99.90;;;;;;5037088;28;20173;-79
2023/08/19 08:59:27;;;;;;;6.63;3.00;;;24.90;99.90;;;;;;5056486;28;20237;-79
2023/08/19 09:01:54;;;;;;;3.58;2.47;;;25.00;99.90;;;;;;5056944;28;20191;-79
2023/08/19 09:04:22;;;;;;;6.13;2.45;;;25.00;99.90;;;;;;5057037;28;20272;-79
2023/08/19 09:06:56;;;;;;;6.18;2.42;;;25.10;99.90;;;;;;5055982;28;20197;-79
2023/08/19 09:09:24;;;;;;;5.85;2.45;;;25.20;99.90;;;;;;5056925;28;20155;-79
2023/08/19 09:11:54;;;;;;;3.75;2.60;;;25.20;99.90;;;;;;5053952;28;20580;-79
2023/08/19 09:14:44;;;;;;;5.30;2.95;;;25.30;99.90;;;;;;5056671;28;20207;-79
2023/08/19 09:17:17;;;;;;;3.45;3.00;;;25.40;99.90;;;;;;5056555;28;20174;-79
2023/08/19 09:19:43;;;;;;;6.55;3.10;;;25.40;99.90;;;;;;5056950;28;20184;-79
2023/08/19 09:22:20;;;;;;;4.63;3.00;;;25.50;99.90;;;;;;5064090;28;20192;-78
2023/08/19 09:24:46;;;;;;;6.20;2.72;;;25.60;99.90;;;;;;5069438;28;20151;-78
2023/08/19 09:27:13;;;;;;;5.28;3.08;;;25.60;99.90;;;;;;5058832;28;20674;-79
2023/08/19 09:29:49;;;;;;;5.97;3.10;;;25.70;99.90;;;;;;5056349;28;20184;-79
2023/08/19 09:32:15;;;;;;;3.78;2.55;;;25.70;99.90;;;;;;5057370;28;20202;-79
2023/08/19 09:34:40;;;;;;;8.50;2.70;;;25.70;99.90;;;;;;5056752;28;20628;-78
2023/08/19 09:37:08;;;;;;;4.00;2.40;;;25.80;99.90;;;;;;5055624;28;20658;-79
2023/08/19 09:39:34;;;;;;;5.18;2.95;;;25.80;99.90;;;;;;5056976;28;20191;-79
2023/08/19 09:42:00;;;;;;;4.43;2.53;;;25.90;99.90;;;;;;5058084;28;20686;-79
2023/08/19 09:44:29;;;;;;;4.72;2.83;;;26.00;99.90;;;;;;5050379;28;20674;-79
2023/08/19 09:47:00;;;;;;;9.00;2.92;;;25.90;99.90;;;;;;5036077;28;20183;-79
2023/08/19 09:49:26;;;;;;;5.72;2.95;;;25.90;99.90;;;;;;5037116;28;20199;-79
2023/08/19 09:51:54;;;;;;;6.03;2.90;;;26.00;99.90;;;;;;5036679;28;20188;-78
2023/08/19 09:54:20;;;;;;;9.38;2.72;;;26.30;99.90;;;;;;5036051;28;20632;-79
2023/08/19 09:56:53;;;;;;;6.57;2.97;;;26.10;99.90;;;;;;5036337;28;20235;-79
2023/08/19 09:59:18;;;;;;;6.25;2.97;;;26.20;99.90;;;;;;5043721;28;20242;-79
2023/08/19 10:01:44;;;;;;;3.90;2.90;;;26.20;99.90;;;;;;5055941;28;20192;-79
2023/08/19 10:04:09;;;;;;;5.97;3.10;;;26.30;99.90;;;;;;5056189;28;20635;-79
2023/08/19 10:06:41;;;;;;;5.30;3.17;;;26.30;99.90;;;;;;5056488;28;20164;-79
2023/08/19 10:09:09;;;;;;;5.57;3.10;;;26.40;99.90;;;;;;5054726;28;20168;-79
2023/08/19 10:11:37;;;;;;;4.18;3.17;;;26.50;99.90;;;;;;5056184;28;20194;-79
2023/08/19 10:14:04;;;;;;;8.65;3.30;;;26.60;99.90;;;;;;5053716;28;20206;-79
2023/08/19 10:16:32;;;;;;;7.75;3.53;;;26.60;99.90;;;;;;5056320;28;20184;-79
2023/08/19 10:19:00;;;;;;;3.83;3.17;;;26.60;99.90;;;;;;5056787;28;20191;-79
2023/08/19 10:21:30;;;;;;;5.65;3.17;;;26.80;99.90;;;;;;5055530;28;20187;-79
2023/08/19 10:23:57;;;;;;;9.13;3.30;;;26.80;99.90;;;;;;5055791;28;20616;-79
2023/08/19 10:26:23;;;;;;;6.30;3.45;;;26.80;99.90;;;;;;5054878;28;20258;-79
2023/08/19 10:29:07;;;;;;;10.18;3.85;;;26.90;99.90;;;;;;5055309;28;20218;-79
2023/08/19 10:31:35;;;;;;;5.72;3.45;;;26.90;99.90;;;;;;5053402;28;20208;-79
2023/08/19 10:34:11;;;;;;;9.32;4.15;;;26.90;99.90;;;;;;5055537;28;20179;-78
2023/08/19 10:36:37;;;;;;;9.82;3.88;;;27.00;1.00;;;;;;5054193;28;20181;-79
2023/08/19 10:39:07;;;;;;;7.93;4.28;;;27.00;1.00;;;;;;5055094;28;20195;-79
2023/08/19 10:41:38;;;;;;;5.75;4.50;;;27.10;1.00;;;;;;5055596;28;20294;-79
2023/08/19 10:44:11;;;;;;;7.25;4.30;;;27.10;1.00;;;;;;5055205;28;20171;-79
2023/08/19 10:46:38;;;;;;;5.72;3.90;;;27.20;1.00;;;;;;5049709;28;20195;-79
2023/08/19 10:49:05;;;;;;;8.85;3.85;;;27.20;1.00;;;;;;5035661;28;20226;-79
2023/08/19 10:51:51;;;;;;;5.97;4.07;;;27.30;99.90;;;;;;5035004;28;20200;-78
2023/08/19 10:54:35;;;;;;;7.00;4.55;;;27.20;1.00;;;;;;5037309;28;20248;-78
2023/08/19 10:57:25;;;;;;;9.90;4.50;;;27.30;81.40;;;;;;5036375;28;20195;-79
2023/08/19 11:00:00;;;;;;;7.15;4.35;;;27.30;99.90;;;;;;5035795;28;20685;-78
2023/08/19 11:02:27;;;;;;;8.55;4.40;;;27.30;99.90;;;;;;5035126;28;20206;-78
2023/08/19 11:04:53;;;;;;;7.18;4.07;;;27.40;1.00;;;;;;5035024;28;20160;-79
2023/08/19 11:07:20;;;;;;;8.27;4.35;;;27.40;1.00;;;;;;5035200;28;20169;-79
2023/08/19 11:09:47;;;;;;;6.10;4.53;;;27.50;1.00;;;;;;5035115;28;20261;-79
2023/08/19 11:12:23;;;;;;;8.15;4.82;;;27.40;34.00;;;;;;5034682;28;20195;-78
2023/08/19 11:14:52;;;;;;;7.75;4.45;;;27.40;1.00;;;;;;5036689;28;20644;-79
2023/08/19 11:17:27;;;;;;;12.98;4.65;;;27.30;1.00;;;;;;5038449;28;20183;-80
2023/08/19 11:19:52;;;;;;;10.73;4.43;;;27.30;99.90;;;;;;5052078;28;20227;-79
2023/08/19 11:22:20;;;;;;;8.48;5.43;;;27.20;1.00;;;;;;5057754;28;20199;-79
2023/08/19 11:24:46;;;;;;;7.32;4.47;;;27.20;1.00;;;;;;5058395;28;20238;-79
2023/08/19 11:27:12;;;;;;;10.27;5.55;;;27.10;3.90;;;;;;5057753;28;20171;-79
2023/08/19 11:29:38;;;;;;;7.63;5.22;;;27.10;1.00;;;;;;5058500;28;20184;-79
2023/08/19 11:32:04;;;;;;;7.28;4.93;;;27.00;1.00;;;;;;5061925;28;20199;-79
2023/08/19 11:34:30;;;;;;;6.75;5.43;;;27.10;99.90;;;;;;5073710;28;20183;-79
2023/08/19 11:36:56;;;;;;;10.63;5.10;;;27.10;1.00;;;;;;5067864;28;20178;-79
2023/08/19 11:39:22;;;;;;;6.60;4.80;;;27.10;99.90;;;;;;5057847;28;20215;-79
2023/08/19 11:41:47;;;;;;;9.88;5.97;;;27.20;1.00;;;;;;5058811;28;20249;-79
2023/08/19 11:44:14;;;;;;;6.47;5.63;;;27.00;99.90;;;;;;5056809;28;20172;-80
2023/08/19 11:46:40;;;;;;;11.20;6.18;;;27.10;99.90;;;;;;5039192;28;20180;-79
2023/08/19 11:49:08;;;;;;;10.02;6.15;;;27.10;24.40;;;;;;5038500;28;20580;-79
2023/08/19 11:51:38;;;;;;;7.95;6.05;;;27.10;4.20;;;;;;5037741;28;20204;-79
2023/08/19 11:54:09;;;;;;;10.90;6.47;;;27.10;25.80;;;;;;5037420;28;20169;-80
2023/08/19 11:56:46;;;;;;;10.02;6.10;;;27.10;17.10;;;;;;5036703;28;20210;-79
2023/08/19 11:59:12;;;;;;;12.02;6.20;;;27.20;1.00;;;;;;5044333;28;20232;-80
2023/08/19 12:01:38;;;;;;;9.27;6.75;;;27.10;99.90;;;;;;5048682;28;20278;-79
2023/08/19 12:04:18;;;;;;;12.50;6.07;;;27.10;1.00;;;;;;5056346;28;20187;-79
2023/08/19 12:06:46;;;;;;;11.80;6.38;;;27.10;1.00;;;;;;5058282;28;20156;-79
2023/08/19 12:09:12;;;;;;;10.00;5.97;;;27.00;99.90;;;;;;5057978;28;20186;-79
2023/08/19 12:11:38;;;;;;;7.10;5.78;;;27.00;99.90;;;;;;5057856;28;20191;-79
2023/08/19 12:14:04;;;;;;;9.05;6.32;;;27.00;99.90;;;;;;5055151;28;20171;-79
2023/08/19 12:16:30;;;;;;;8.32;6.43;;;26.90;99.90;;;;;;5052499;28;20176;-79
2023/08/19 12:18:59;;;;;;;11.52;7.07;;;26.70;99.90;;;;;;5057343;28;20210;-79
2023/08/19 12:21:25;;;;;;;14.85;6.10;;;26.80;1.00;;;;;;5057425;28;20230;-80
2023/08/19 12:23:51;;;;;;;6.97;6.03;;;26.80;1.00;;;;;;5057497;28;20530;-80
2023/08/19 12:26:17;;;;;;;8.23;6.75;;;26.80;1.00;;;;;;5056981;28;20171;-79
2023/08/19 12:28:43;;;;;;;7.82;6.38;;;26.80;1.00;;;;;;5055398;28;20191;-79
2023/08/19 12:31:10;;;;;;;8.55;6.43;;;26.80;1.00;;;;;;5046806;28;20291;-79
2023/08/19 12:33:35;;;;;;;11.15;6.18;;;26.80;1.00;;;;;;5037711;28;20185;-79
2023/08/19 12:36:01;;;;;;;12.48;7.28;;;26.70;1.00;;;;;;5037610;28;20172;-79
2023/08/19 12:38:27;;;;;;;8.27;6.93;;;26.90;5.20;;;;;;5037334;28;20255;-80
2023/08/19 12:40:53;;;;;;;10.35;7.15;;;26.70;1.00;;;;;;5037056;28;20196;-79
2023/08/19 12:43:18;;;;;;;8.25;7.25;;;26.60;99.90;;;;;;5037423;28;20660;-79